sensor_id;sensor_type;location;lat;lon;timestamp;P1;durP1;ratioP1;P2;durP2;ratioP2
313;SDS011;143;51.634;7.112;2022-07-06T00:00:05;4.87;;;2.10;;
313;SDS011;143;51.634;7.112;2022-07-06T00:02:31;8.23;;;2.33;;
313;SDS011;143;51.634;7.112;2022-07-06T00:04:57;6.40;;;3.93;;
313;SDS011;143;51.634;7.112;2022-07-06T00:07:23;5.27;;;2.37;;
313;SDS011;143;51.634;7.112;2022-07-06T00:09:49;4.37;;;2.20;;
313;SDS011;143;51.634;7.112;2022-07-06T00:12:15;4.60;;;2.20;;
313;SDS011;143;51.634;7.112;2022-07-06T00:14:41;2.90;;;2.40;;
313;SDS011;143;51.634;7.112;2022-07-06T00:17:06;4.00;;;2.47;;
313;SDS011;143;51.634;7.112;2022-07-06T00:19:32;6.20;;;2.20;;
313;SDS011;143;51.634;7.112;2022-07-06T00:21:58;6.73;;;2.77;;
313;SDS011;143;51.634;7.112;2022-07-06T00:24:24;11.13;;;2.30;;
313;SDS011;143;51.634;7.112;2022-07-06T00:26:50;6.23;;;2.67;;
313;SDS011;143;51.634;7.112;2022-07-06T00:29:16;5.00;;;2.13;;
313;SDS011;143;51.634;7.112;2022-07-06T00:31:42;5.43;;;2.10;;
313;SDS011;143;51.634;7.112;2022-07-06T00:34:08;3.87;;;2.77;;
313;SDS011;143;51.634;7.112;2022-07-06T00:36:33;5.60;;;2.60;;
313;SDS011;143;51.634;7.112;2022-07-06T00:38:59;4.47;;;2.10;;
313;SDS011;143;51.634;7.112;2022-07-06T00:41:25;4.83;;;2.40;;
313;SDS011;143;51.634;7.112;2022-07-06T00:46:18;4.37;;;2.70;;
313;SDS011;143;51.634;7.112;2022-07-06T00:48:51;4.23;;;1.97;;
313;SDS011;143;51.634;7.112;2022-07-06T00:51:17;5.50;;;2.13;;
313;SDS011;143;51.634;7.112;2022-07-06T00:53:43;2.37;;;1.83;;
313;SDS011;143;51.634;7.112;2022-07-06T00:56:11;2.30;;;1.97;;
313;SDS011;143;51.634;7.112;2022-07-06T00:58:37;3.20;;;2.30;;
313;SDS011;143;51.634;7.112;2022-07-06T01:01:03;5.37;;;2.00;;
313;SDS011;143;51.634;7.112;2022-07-06T01:03:28;6.37;;;2.13;;
313;SDS011;143;51.634;7.112;2022-07-06T01:05:54;9.10;;;1.83;;
313;SDS011;143;51.634;7.112;2022-07-06T01:08:20;6.63;;;2.57;;
313;SDS011;143;51.634;7.112;2022-07-06T01:10:46;7.90;;;2.87;;
313;SDS011;143;51.634;7.112;2022-07-06T01:13:11;5.27;;;2.53;;
313;SDS011;143;51.634;7.112;2022-07-06T01:15:37;5.43;;;2.63;;
313;SDS011;143;51.634;7.112;2022-07-06T01:18:03;4.47;;;3.10;;
313;SDS011;143;51.634;7.112;2022-07-06T01:20:29;5.47;;;2.40;;
313;SDS011;143;51.634;7.112;2022-07-06T01:22:58;5.37;;;2.57;;
313;SDS011;143;51.634;7.112;2022-07-06T01:25:24;11.50;;;2.90;;
313;SDS011;143;51.634;7.112;2022-07-06T01:27:50;5.10;;;2.70;;
313;SDS011;143;51.634;7.112;2022-07-06T01:30:17;4.70;;;2.63;;
313;SDS011;143;51.634;7.112;2022-07-06T01:32:44;3.33;;;2.40;;
313;SDS011;143;51.634;7.112;2022-07-06T01:35:12;7.40;;;3.07;;
313;SDS011;143;51.634;7.112;2022-07-06T01:37:39;3.20;;;2.43;;
313;SDS011;143;51.634;7.112;2022-07-06T01:40:06;6.40;;;2.40;;
313;SDS011;143;51.634;7.112;2022-07-06T01:42:34;4.73;;;2.47;;
313;SDS011;143;51.634;7.112;2022-07-06T01:45:00;5.00;;;2.70;;
313;SDS011;143;51.634;7.112;2022-07-06T01:47:26;7.13;;;2.60;;
313;SDS011;143;51.634;7.112;2022-07-06T01:49:52;4.60;;;2.70;;
313;SDS011;143;51.634;7.112;2022-07-06T01:52:18;4.73;;;2.40;;
313;SDS011;143;51.634;7.112;2022-07-06T01:54:43;6.53;;;2.30;;
313;SDS011;143;51.634;7.112;2022-07-06T01:57:09;11.47;;;2.60;;
313;SDS011;143;51.634;7.112;2022-07-06T01:59:35;4.60;;;2.70;;
313;SDS011;143;51.634;7.112;2022-07-06T02:02:01;3.67;;;2.40;;
313;SDS011;143;51.634;7.112;2022-07-06T02:04:27;3.10;;;2.60;;
313;SDS011;143;51.634;7.112;2022-07-06T02:06:53;4.43;;;2.53;;
313;SDS011;143;51.634;7.112;2022-07-06T02:09:18;4.50;;;2.77;;
313;SDS011;143;51.634;7.112;2022-07-06T02:11:44;2.23;;;2.03;;
313;SDS011;143;51.634;7.112;2022-07-06T02:14:10;2.67;;;2.30;;
313;SDS011;143;51.634;7.112;2022-07-06T02:16:36;3.93;;;2.10;;
313;SDS011;143;51.634;7.112;2022-07-06T02:19:02;5.03;;;2.37;;
313;SDS011;143;51.634;7.112;2022-07-06T02:21:28;3.27;;;2.40;;
313;SDS011;143;51.634;7.112;2022-07-06T02:23:54;5.37;;;2.80;;
313;SDS011;143;51.634;7.112;2022-07-06T02:26:19;9.40;;;3.07;;
313;SDS011;143;51.634;7.112;2022-07-06T02:28:45;5.80;;;2.60;;
313;SDS011;143;51.634;7.112;2022-07-06T02:31:12;2.73;;;2.23;;
313;SDS011;143;51.634;7.112;2022-07-06T02:33:39;5.63;;;2.90;;
313;SDS011;143;51.634;7.112;2022-07-06T02:36:05;4.03;;;2.30;;
313;SDS011;143;51.634;7.112;2022-07-06T02:38:31;7.40;;;3.00;;
313;SDS011;143;51.634;7.112;2022-07-06T02:40:57;4.70;;;2.70;;
313;SDS011;143;51.634;7.112;2022-07-06T02:43:22;8.83;;;3.00;;
313;SDS011;143;51.634;7.112;2022-07-06T02:45:48;10.20;;;2.60;;
313;SDS011;143;51.634;7.112;2022-07-06T02:48:14;5.90;;;3.53;;
313;SDS011;143;51.634;7.112;2022-07-06T02:50:40;4.33;;;2.47;;
313;SDS011;143;51.634;7.112;2022-07-06T02:53:05;8.27;;;2.67;;
313;SDS011;143;51.634;7.112;2022-07-06T02:55:31;7.97;;;2.83;;
313;SDS011;143;51.634;7.112;2022-07-06T02:57:57;6.07;;;2.70;;
313;SDS011;143;51.634;7.112;2022-07-06T03:00:22;4.43;;;2.03;;
313;SDS011;143;51.634;7.112;2022-07-06T03:02:48;4.43;;;2.43;;
313;SDS011;143;51.634;7.112;2022-07-06T03:05:14;5.53;;;2.27;;
313;SDS011;143;51.634;7.112;2022-07-06T03:07:40;3.47;;;2.40;;
313;SDS011;143;51.634;7.112;2022-07-06T03:10:06;4.07;;;3.00;;
313;SDS011;143;51.634;7.112;2022-07-06T03:12:31;9.47;;;2.73;;
313;SDS011;143;51.634;7.112;2022-07-06T03:14:57;9.90;;;3.10;;
313;SDS011;143;51.634;7.112;2022-07-06T03:17:23;4.97;;;2.37;;
313;SDS011;143;51.634;7.112;2022-07-06T03:19:48;6.90;;;2.30;;
313;SDS011;143;51.634;7.112;2022-07-06T03:22:14;7.53;;;2.70;;
313;SDS011;143;51.634;7.112;2022-07-06T03:24:40;4.00;;;2.63;;
313;SDS011;143;51.634;7.112;2022-07-06T03:27:06;3.73;;;2.70;;
313;SDS011;143;51.634;7.112;2022-07-06T03:29:32;3.73;;;2.40;;
313;SDS011;143;51.634;7.112;2022-07-06T03:31:57;5.17;;;2.70;;
313;SDS011;143;51.634;7.112;2022-07-06T03:34:23;5.63;;;2.50;;
313;SDS011;143;51.634;7.112;2022-07-06T03:36:49;11.80;;;2.37;;
313;SDS011;143;51.634;7.112;2022-07-06T03:39:14;5.73;;;2.97;;
313;SDS011;143;51.634;7.112;2022-07-06T03:41:40;4.63;;;2.50;;
313;SDS011;143;51.634;7.112;2022-07-06T03:44:06;9.97;;;2.60;;
313;SDS011;143;51.634;7.112;2022-07-06T03:46:31;6.90;;;2.70;;
313;SDS011;143;51.634;7.112;2022-07-06T03:48:57;5.30;;;2.80;;
313;SDS011;143;51.634;7.112;2022-07-06T03:51:23;4.23;;;2.70;;
313;SDS011;143;51.634;7.112;2022-07-06T03:53:48;5.20;;;2.70;;
313;SDS011;143;51.634;7.112;2022-07-06T03:56:15;4.23;;;2.40;;
313;SDS011;143;51.634;7.112;2022-07-06T03:58:53;4.00;;;2.57;;
313;SDS011;143;51.634;7.112;2022-07-06T04:01:21;5.80;;;2.40;;
313;SDS011;143;51.634;7.112;2022-07-06T04:03:47;2.67;;;2.20;;
313;SDS011;143;51.634;7.112;2022-07-06T04:06:13;7.87;;;2.93;;
313;SDS011;143;51.634;7.112;2022-07-06T04:08:39;4.60;;;2.50;;
313;SDS011;143;51.634;7.112;2022-07-06T04:11:04;12.57;;;3.03;;
313;SDS011;143;51.634;7.112;2022-07-06T04:13:30;4.93;;;2.67;;
313;SDS011;143;51.634;7.112;2022-07-06T04:15:56;3.13;;;2.03;;
313;SDS011;143;51.634;7.112;2022-07-06T04:18:22;5.63;;;2.90;;
313;SDS011;143;51.634;7.112;2022-07-06T04:20:49;10.50;;;2.70;;
313;SDS011;143;51.634;7.112;2022-07-06T04:23:14;9.33;;;2.53;;
313;SDS011;143;51.634;7.112;2022-07-06T04:25:40;5.30;;;2.60;;
313;SDS011;143;51.634;7.112;2022-07-06T04:28:06;3.37;;;2.33;;
313;SDS011;143;51.634;7.112;2022-07-06T04:30:32;5.50;;;2.90;;
313;SDS011;143;51.634;7.112;2022-07-06T04:32:57;9.30;;;2.50;;
313;SDS011;143;51.634;7.112;2022-07-06T04:35:23;5.40;;;2.53;;
313;SDS011;143;51.634;7.112;2022-07-06T04:37:49;5.50;;;2.53;;
313;SDS011;143;51.634;7.112;2022-07-06T04:40:15;4.20;;;2.50;;
313;SDS011;143;51.634;7.112;2022-07-06T04:42:41;4.13;;;2.27;;
313;SDS011;143;51.634;7.112;2022-07-06T04:45:07;10.00;;;3.73;;
313;SDS011;143;51.634;7.112;2022-07-06T04:47:34;3.73;;;2.40;;
313;SDS011;143;51.634;7.112;2022-07-06T04:50:00;6.20;;;3.00;;
313;SDS011;143;51.634;7.112;2022-07-06T04:52:27;5.53;;;2.57;;
313;SDS011;143;51.634;7.112;2022-07-06T04:54:53;5.57;;;2.70;;
313;SDS011;143;51.634;7.112;2022-07-06T04:57:19;4.57;;;2.33;;
313;SDS011;143;51.634;7.112;2022-07-06T04:59:45;5.60;;;2.37;;
313;SDS011;143;51.634;7.112;2022-07-06T05:02:11;7.10;;;2.83;;
313;SDS011;143;51.634;7.112;2022-07-06T05:04:37;8.33;;;2.40;;
313;SDS011;143;51.634;7.112;2022-07-06T05:07:03;7.30;;;2.70;;
313;SDS011;143;51.634;7.112;2022-07-06T05:09:29;6.20;;;2.50;;
313;SDS011;143;51.634;7.112;2022-07-06T05:11:54;7.87;;;2.70;;
313;SDS011;143;51.634;7.112;2022-07-06T05:14:20;7.13;;;3.10;;
313;SDS011;143;51.634;7.112;2022-07-06T05:16:46;10.27;;;2.83;;
313;SDS011;143;51.634;7.112;2022-07-06T05:19:12;8.00;;;3.13;;
313;SDS011;143;51.634;7.112;2022-07-06T05:21:37;3.67;;;2.20;;
313;SDS011;143;51.634;7.112;2022-07-06T05:24:03;7.20;;;2.37;;
313;SDS011;143;51.634;7.112;2022-07-06T05:26:29;6.50;;;2.33;;
313;SDS011;143;51.634;7.112;2022-07-06T05:28:55;7.00;;;2.40;;
313;SDS011;143;51.634;7.112;2022-07-06T05:31:20;4.40;;;1.93;;
313;SDS011;143;51.634;7.112;2022-07-06T05:33:46;8.07;;;2.53;;
313;SDS011;143;51.634;7.112;2022-07-06T05:36:12;4.03;;;1.97;;
313;SDS011;143;51.634;7.112;2022-07-06T05:38:37;3.23;;;1.87;;
313;SDS011;143;51.634;7.112;2022-07-06T05:41:03;6.23;;;2.40;;
313;SDS011;143;51.634;7.112;2022-07-06T05:43:29;2.57;;;1.70;;
313;SDS011;143;51.634;7.112;2022-07-06T05:45:55;5.83;;;1.80;;
313;SDS011;143;51.634;7.112;2022-07-06T05:48:20;9.70;;;2.30;;
313;SDS011;143;51.634;7.112;2022-07-06T05:51:05;3.10;;;1.77;;
313;SDS011;143;51.634;7.112;2022-07-06T05:53:30;7.03;;;2.07;;
313;SDS011;143;51.634;7.112;2022-07-06T05:55:56;5.77;;;2.10;;
313;SDS011;143;51.634;7.112;2022-07-06T05:58:22;7.40;;;1.90;;
313;SDS011;143;51.634;7.112;2022-07-06T06:00:50;6.17;;;1.87;;
313;SDS011;143;51.634;7.112;2022-07-06T06:03:16;4.07;;;2.00;;
313;SDS011;143;51.634;7.112;2022-07-06T06:05:42;4.30;;;1.83;;
313;SDS011;143;51.634;7.112;2022-07-06T06:08:07;4.20;;;1.57;;
313;SDS011;143;51.634;7.112;2022-07-06T06:10:34;2.63;;;1.83;;
313;SDS011;143;51.634;7.112;2022-07-06T06:13:00;7.03;;;1.53;;
313;SDS011;143;51.634;7.112;2022-07-06T06:15:26;10.67;;;2.00;;
313;SDS011;143;51.634;7.112;2022-07-06T06:17:52;5.43;;;1.87;;
313;SDS011;143;51.634;7.112;2022-07-06T06:20:18;5.17;;;1.83;;
313;SDS011;143;51.634;7.112;2022-07-06T06:22:47;4.50;;;1.87;;
313;SDS011;143;51.634;7.112;2022-07-06T06:25:26;7.10;;;1.87;;
313;SDS011;143;51.634;7.112;2022-07-06T06:27:54;8.20;;;1.70;;
313;SDS011;143;51.634;7.112;2022-07-06T06:30:20;5.70;;;1.60;;
313;SDS011;143;51.634;7.112;2022-07-06T06:32:46;10.90;;;2.10;;
313;SDS011;143;51.634;7.112;2022-07-06T06:35:11;2.63;;;1.30;;
313;SDS011;143;51.634;7.112;2022-07-06T06:37:37;5.13;;;1.97;;
313;SDS011;143;51.634;7.112;2022-07-06T06:40:03;1.50;;;1.07;;
313;SDS011;143;51.634;7.112;2022-07-06T06:42:30;5.10;;;1.30;;
313;SDS011;143;51.634;7.112;2022-07-06T06:44:56;2.50;;;1.30;;
313;SDS011;143;51.634;7.112;2022-07-06T06:47:22;7.33;;;1.80;;
313;SDS011;143;51.634;7.112;2022-07-06T06:49:47;10.40;;;2.10;;
313;SDS011;143;51.634;7.112;2022-07-06T06:52:13;3.53;;;1.33;;
313;SDS011;143;51.634;7.112;2022-07-06T06:54:39;5.13;;;1.97;;
313;SDS011;143;51.634;7.112;2022-07-06T06:57:05;9.13;;;1.70;;
313;SDS011;143;51.634;7.112;2022-07-06T06:59:31;6.07;;;1.73;;
313;SDS011;143;51.634;7.112;2022-07-06T07:01:56;1.93;;;1.30;;
313;SDS011;143;51.634;7.112;2022-07-06T07:04:22;3.70;;;1.13;;
313;SDS011;143;51.634;7.112;2022-07-06T07:06:48;3.07;;;1.37;;
313;SDS011;143;51.634;7.112;2022-07-06T07:09:14;9.40;;;1.57;;
313;SDS011;143;51.634;7.112;2022-07-06T07:11:40;6.10;;;2.00;;
313;SDS011;143;51.634;7.112;2022-07-06T07:14:06;5.73;;;1.67;;
313;SDS011;143;51.634;7.112;2022-07-06T07:16:31;7.23;;;1.40;;
313;SDS011;143;51.634;7.112;2022-07-06T07:18:58;4.00;;;1.50;;
313;SDS011;143;51.634;7.112;2022-07-06T07:21:24;8.23;;;1.53;;
313;SDS011;143;51.634;7.112;2022-07-06T07:23:49;6.47;;;1.20;;
313;SDS011;143;51.634;7.112;2022-07-06T07:26:16;3.87;;;0.90;;
313;SDS011;143;51.634;7.112;2022-07-06T07:28:42;3.63;;;1.20;;
313;SDS011;143;51.634;7.112;2022-07-06T07:31:07;6.13;;;1.00;;
313;SDS011;143;51.634;7.112;2022-07-06T07:33:33;9.03;;;1.43;;
313;SDS011;143;51.634;7.112;2022-07-06T07:35:59;4.23;;;1.03;;
313;SDS011;143;51.634;7.112;2022-07-06T07:38:25;5.23;;;1.50;;
313;SDS011;143;51.634;7.112;2022-07-06T07:40:53;3.93;;;0.93;;
313;SDS011;143;51.634;7.112;2022-07-06T07:43:19;1.67;;;0.80;;
313;SDS011;143;51.634;7.112;2022-07-06T07:45:45;4.33;;;1.10;;
313;SDS011;143;51.634;7.112;2022-07-06T07:48:11;2.70;;;0.83;;
313;SDS011;143;51.634;7.112;2022-07-06T07:50:37;9.70;;;1.10;;
313;SDS011;143;51.634;7.112;2022-07-06T07:53:02;2.47;;;1.13;;
313;SDS011;143;51.634;7.112;2022-07-06T07:55:28;2.57;;;1.47;;
313;SDS011;143;51.634;7.112;2022-07-06T07:57:54;4.03;;;1.10;;
313;SDS011;143;51.634;7.112;2022-07-06T08:00:19;6.63;;;1.10;;
313;SDS011;143;51.634;7.112;2022-07-06T08:02:46;4.13;;;1.20;;
313;SDS011;143;51.634;7.112;2022-07-06T08:05:13;3.73;;;1.07;;
313;SDS011;143;51.634;7.112;2022-07-06T08:07:41;2.80;;;1.33;;
313;SDS011;143;51.634;7.112;2022-07-06T08:10:07;6.20;;;1.20;;
313;SDS011;143;51.634;7.112;2022-07-06T08:12:35;7.30;;;1.53;;
313;SDS011;143;51.634;7.112;2022-07-06T08:15:01;5.63;;;1.80;;
313;SDS011;143;51.634;7.112;2022-07-06T08:17:27;1.40;;;0.83;;
313;SDS011;143;51.634;7.112;2022-07-06T08:19:52;5.00;;;1.30;;
313;SDS011;143;51.634;7.112;2022-07-06T08:22:18;3.83;;;0.97;;
313;SDS011;143;51.634;7.112;2022-07-06T08:24:44;6.27;;;1.83;;
313;SDS011;143;51.634;7.112;2022-07-06T08:27:09;6.63;;;1.00;;
313;SDS011;143;51.634;7.112;2022-07-06T08:29:35;1.80;;;0.73;;
313;SDS011;143;51.634;7.112;2022-07-06T08:32:01;3.27;;;0.73;;
313;SDS011;143;51.634;7.112;2022-07-06T08:34:27;3.97;;;0.90;;
313;SDS011;143;51.634;7.112;2022-07-06T08:36:52;3.30;;;1.10;;
313;SDS011;143;51.634;7.112;2022-07-06T08:39:18;1.20;;;0.70;;
313;SDS011;143;51.634;7.112;2022-07-06T08:41:44;9.00;;;1.20;;
313;SDS011;143;51.634;7.112;2022-07-06T08:44:13;2.67;;;0.77;;
313;SDS011;143;51.634;7.112;2022-07-06T08:46:43;6.20;;;0.80;;
313;SDS011;143;51.634;7.112;2022-07-06T08:49:12;6.30;;;0.90;;
313;SDS011;143;51.634;7.112;2022-07-06T08:51:39;2.90;;;0.80;;
313;SDS011;143;51.634;7.112;2022-07-06T08:54:07;5.50;;;1.10;;
313;SDS011;143;51.634;7.112;2022-07-06T08:56:33;7.00;;;1.10;;
313;SDS011;143;51.634;7.112;2022-07-06T08:58:59;4.97;;;1.00;;
313;SDS011;143;51.634;7.112;2022-07-06T09:01:25;3.17;;;0.80;;
313;SDS011;143;51.634;7.112;2022-07-06T09:03:52;6.23;;;1.20;;
313;SDS011;143;51.634;7.112;2022-07-06T09:06:22;2.47;;;0.83;;
313;SDS011;143;51.634;7.112;2022-07-06T09:08:49;4.93;;;1.10;;
313;SDS011;143;51.634;7.112;2022-07-06T09:11:20;3.13;;;0.90;;
313;SDS011;143;51.634;7.112;2022-07-06T09:13:47;1.10;;;0.80;;
313;SDS011;143;51.634;7.112;2022-07-06T09:16:14;4.20;;;1.07;;
313;SDS011;143;51.634;7.112;2022-07-06T09:18:44;2.83;;;0.80;;
313;SDS011;143;51.634;7.112;2022-07-06T09:21:11;2.63;;;0.80;;
313;SDS011;143;51.634;7.112;2022-07-06T09:23:46;3.60;;;1.00;;
313;SDS011;143;51.634;7.112;2022-07-06T09:26:17;2.23;;;0.90;;
313;SDS011;143;51.634;7.112;2022-07-06T09:28:44;2.43;;;0.70;;
313;SDS011;143;51.634;7.112;2022-07-06T09:31:10;4.23;;;0.90;;
313;SDS011;143;51.634;7.112;2022-07-06T09:33:37;1.03;;;0.60;;
313;SDS011;143;51.634;7.112;2022-07-06T09:36:04;2.87;;;0.90;;
313;SDS011;143;51.634;7.112;2022-07-06T09:38:30;7.20;;;0.80;;
313;SDS011;143;51.634;7.112;2022-07-06T09:40:56;2.27;;;1.07;;
313;SDS011;143;51.634;7.112;2022-07-06T09:43:23;1.70;;;0.73;;
313;SDS011;143;51.634;7.112;2022-07-06T09:45:53;2.90;;;0.70;;
313;SDS011;143;51.634;7.112;2022-07-06T09:48:20;12.97;;;2.13;;
313;SDS011;143;51.634;7.112;2022-07-06T09:51:00;2.80;;;0.93;;
313;SDS011;143;51.634;7.112;2022-07-06T09:53:27;3.90;;;0.80;;
313;SDS011;143;51.634;7.112;2022-07-06T09:55:54;5.90;;;1.20;;
313;SDS011;143;51.634;7.112;2022-07-06T09:58:23;6.93;;;0.90;;
313;SDS011;143;51.634;7.112;2022-07-06T10:00:49;7.73;;;1.00;;
313;SDS011;143;51.634;7.112;2022-07-06T10:03:16;6.60;;;1.87;;
313;SDS011;143;51.634;7.112;2022-07-06T10:05:43;3.00;;;0.80;;
313;SDS011;143;51.634;7.112;2022-07-06T10:08:12;1.67;;;1.00;;
313;SDS011;143;51.634;7.112;2022-07-06T10:10:39;2.67;;;1.00;;
313;SDS011;143;51.634;7.112;2022-07-06T10:13:07;2.43;;;0.90;;
313;SDS011;143;51.634;7.112;2022-07-06T10:15:35;4.97;;;1.10;;
313;SDS011;143;51.634;7.112;2022-07-06T10:18:04;3.67;;;1.20;;
313;SDS011;143;51.634;7.112;2022-07-06T10:20:32;4.73;;;0.80;;
313;SDS011;143;51.634;7.112;2022-07-06T10:23:02;4.33;;;0.87;;
313;SDS011;143;51.634;7.112;2022-07-06T10:25:28;6.03;;;1.20;;
313;SDS011;143;51.634;7.112;2022-07-06T10:27:56;3.50;;;0.93;;
313;SDS011;143;51.634;7.112;2022-07-06T10:30:22;3.47;;;1.30;;
313;SDS011;143;51.634;7.112;2022-07-06T10:32:49;5.80;;;0.90;;
313;SDS011;143;51.634;7.112;2022-07-06T10:35:17;1.97;;;1.10;;
313;SDS011;143;51.634;7.112;2022-07-06T10:37:44;2.40;;;0.90;;
313;SDS011;143;51.634;7.112;2022-07-06T10:40:14;6.60;;;1.00;;
313;SDS011;143;51.634;7.112;2022-07-06T10:42:59;8.60;;;1.07;;
313;SDS011;143;51.634;7.112;2022-07-06T10:50:36;9.20;;;1.03;;
313;SDS011;143;51.634;7.112;2022-07-06T10:53:02;1.60;;;0.83;;
313;SDS011;143;51.634;7.112;2022-07-06T10:55:36;8.07;;;1.10;;
313;SDS011;143;51.634;7.112;2022-07-06T10:58:04;2.50;;;0.70;;
313;SDS011;143;51.634;7.112;2022-07-06T11:00:50;4.73;;;0.70;;
313;SDS011;143;51.634;7.112;2022-07-06T11:06:13;1.40;;;0.80;;
313;SDS011;143;51.634;7.112;2022-07-06T11:08:50;3.20;;;0.80;;
313;SDS011;143;51.634;7.112;2022-07-06T11:11:22;4.07;;;1.00;;
313;SDS011;143;51.634;7.112;2022-07-06T11:13:53;1.17;;;0.73;;
313;SDS011;143;51.634;7.112;2022-07-06T11:16:30;2.37;;;0.90;;
313;SDS011;143;51.634;7.112;2022-07-06T11:19:06;2.83;;;0.70;;
313;SDS011;143;51.634;7.112;2022-07-06T11:21:38;2.53;;;0.70;;
313;SDS011;143;51.634;7.112;2022-07-06T11:24:10;2.87;;;0.70;;
313;SDS011;143;51.634;7.112;2022-07-06T11:26:37;1.63;;;0.90;;
313;SDS011;143;51.634;7.112;2022-07-06T11:29:04;3.10;;;1.10;;
313;SDS011;143;51.634;7.112;2022-07-06T11:31:34;2.30;;;1.00;;
313;SDS011;143;51.634;7.112;2022-07-06T11:34:05;3.37;;;0.80;;
313;SDS011;143;51.634;7.112;2022-07-06T11:36:32;8.57;;;1.20;;
313;SDS011;143;51.634;7.112;2022-07-06T11:38:58;3.37;;;1.10;;
313;SDS011;143;51.634;7.112;2022-07-06T11:41:24;6.43;;;0.80;;
313;SDS011;143;51.634;7.112;2022-07-06T11:43:50;3.67;;;1.07;;
313;SDS011;143;51.634;7.112;2022-07-06T11:46:20;3.50;;;1.00;;
313;SDS011;143;51.634;7.112;2022-07-06T11:48:51;4.33;;;1.37;;
313;SDS011;143;51.634;7.112;2022-07-06T11:51:18;1.73;;;0.90;;
313;SDS011;143;51.634;7.112;2022-07-06T11:53:49;3.03;;;0.70;;
313;SDS011;143;51.634;7.112;2022-07-06T11:56:22;6.20;;;0.93;;
313;SDS011;143;51.634;7.112;2022-07-06T11:58:56;2.63;;;0.80;;
313;SDS011;143;51.634;7.112;2022-07-06T12:01:24;3.13;;;0.90;;
313;SDS011;143;51.634;7.112;2022-07-06T12:03:51;5.10;;;0.87;;
313;SDS011;143;51.634;7.112;2022-07-06T12:08:54;3.07;;;0.70;;
313;SDS011;143;51.634;7.112;2022-07-06T12:11:22;2.53;;;0.80;;
313;SDS011;143;51.634;7.112;2022-07-06T12:13:56;4.30;;;0.60;;
313;SDS011;143;51.634;7.112;2022-07-06T12:16:33;3.73;;;0.80;;
313;SDS011;143;51.634;7.112;2022-07-06T12:19:00;5.13;;;1.00;;
313;SDS011;143;51.634;7.112;2022-07-06T12:21:30;2.70;;;1.00;;
313;SDS011;143;51.634;7.112;2022-07-06T12:23:56;2.10;;;0.80;;
313;SDS011;143;51.634;7.112;2022-07-06T12:26:25;2.67;;;1.20;;
313;SDS011;143;51.634;7.112;2022-07-06T12:31:31;2.73;;;1.00;;
313;SDS011;143;51.634;7.112;2022-07-06T12:34:01;1.50;;;0.80;;
313;SDS011;143;51.634;7.112;2022-07-06T12:36:27;1.47;;;0.80;;
313;SDS011;143;51.634;7.112;2022-07-06T12:38:53;3.47;;;0.80;;
313;SDS011;143;51.634;7.112;2022-07-06T12:41:29;4.23;;;0.70;;
313;SDS011;143;51.634;7.112;2022-07-06T12:44:07;1.97;;;0.87;;
313;SDS011;143;51.634;7.112;2022-07-06T12:46:38;1.63;;;1.10;;
313;SDS011;143;51.634;7.112;2022-07-06T12:49:12;5.77;;;0.73;;
313;SDS011;143;51.634;7.112;2022-07-06T12:54:16;2.97;;;0.90;;
313;SDS011;143;51.634;7.112;2022-07-06T12:56:56;1.30;;;0.80;;
313;SDS011;143;51.634;7.112;2022-07-06T12:59:26;1.80;;;0.70;;
313;SDS011;143;51.634;7.112;2022-07-06T13:01:52;2.80;;;0.80;;
313;SDS011;143;51.634;7.112;2022-07-06T13:04:22;3.47;;;0.87;;
313;SDS011;143;51.634;7.112;2022-07-06T13:06:56;5.80;;;0.90;;
313;SDS011;143;51.634;7.112;2022-07-06T13:09:23;1.83;;;0.60;;
313;SDS011;143;51.634;7.112;2022-07-06T13:11:48;2.23;;;0.90;;
313;SDS011;143;51.634;7.112;2022-07-06T13:14:15;3.37;;;0.60;;
313;SDS011;143;51.634;7.112;2022-07-06T13:16:42;4.40;;;0.73;;
313;SDS011;143;51.634;7.112;2022-07-06T13:19:09;9.47;;;1.60;;
313;SDS011;143;51.634;7.112;2022-07-06T13:21:35;7.70;;;1.17;;
313;SDS011;143;51.634;7.112;2022-07-06T13:24:01;1.33;;;0.77;;
313;SDS011;143;51.634;7.112;2022-07-06T13:26:28;5.40;;;0.77;;
313;SDS011;143;51.634;7.112;2022-07-06T13:28:54;1.73;;;0.70;;
313;SDS011;143;51.634;7.112;2022-07-06T13:31:20;1.30;;;0.70;;
313;SDS011;143;51.634;7.112;2022-07-06T13:33:46;5.43;;;1.10;;
313;SDS011;143;51.634;7.112;2022-07-06T13:36:11;2.73;;;0.83;;
313;SDS011;143;51.634;7.112;2022-07-06T13:38:37;3.20;;;0.90;;
313;SDS011;143;51.634;7.112;2022-07-06T13:41:03;5.30;;;1.20;;
313;SDS011;143;51.634;7.112;2022-07-06T13:43:29;2.00;;;1.00;;
313;SDS011;143;51.634;7.112;2022-07-06T13:46:01;6.00;;;1.10;;
313;SDS011;143;51.634;7.112;2022-07-06T13:48:29;2.80;;;0.87;;
313;SDS011;143;51.634;7.112;2022-07-06T13:50:55;1.70;;;0.80;;
313;SDS011;143;51.634;7.112;2022-07-06T13:53:21;2.40;;;0.80;;
313;SDS011;143;51.634;7.112;2022-07-06T13:55:47;1.50;;;0.70;;
313;SDS011;143;51.634;7.112;2022-07-06T13:58:13;3.40;;;0.87;;
313;SDS011;143;51.634;7.112;2022-07-06T14:00:38;3.73;;;0.93;;
313;SDS011;143;51.634;7.112;2022-07-06T14:03:04;1.63;;;0.70;;
313;SDS011;143;51.634;7.112;2022-07-06T14:05:30;2.60;;;0.80;;
313;SDS011;143;51.634;7.112;2022-07-06T14:07:56;3.80;;;0.80;;
313;SDS011;143;51.634;7.112;2022-07-06T14:10:22;1.23;;;0.63;;
313;SDS011;143;51.634;7.112;2022-07-06T14:12:48;4.30;;;1.30;;
313;SDS011;143;51.634;7.112;2022-07-06T14:15:14;4.37;;;0.77;;
313;SDS011;143;51.634;7.112;2022-07-06T14:17:40;2.50;;;0.97;;
313;SDS011;143;51.634;7.112;2022-07-06T14:20:06;4.10;;;0.80;;
313;SDS011;143;51.634;7.112;2022-07-06T14:22:32;5.63;;;0.90;;
313;SDS011;143;51.634;7.112;2022-07-06T14:24:59;4.17;;;1.07;;
313;SDS011;143;51.634;7.112;2022-07-06T14:27:25;2.77;;;0.77;;
313;SDS011;143;51.634;7.112;2022-07-06T14:29:51;2.17;;;0.70;;
313;SDS011;143;51.634;7.112;2022-07-06T14:32:16;1.10;;;0.70;;
313;SDS011;143;51.634;7.112;2022-07-06T14:34:42;5.50;;;0.70;;
313;SDS011;143;51.634;7.112;2022-07-06T14:37:08;1.53;;;1.07;;
313;SDS011;143;51.634;7.112;2022-07-06T14:39:34;2.30;;;0.90;;
313;SDS011;143;51.634;7.112;2022-07-06T14:42:00;2.67;;;0.90;;
313;SDS011;143;51.634;7.112;2022-07-06T14:44:25;3.33;;;0.70;;
313;SDS011;143;51.634;7.112;2022-07-06T14:46:51;0.97;;;0.50;;
313;SDS011;143;51.634;7.112;2022-07-06T14:49:17;3.90;;;0.80;;
313;SDS011;143;51.634;7.112;2022-07-06T14:51:43;1.67;;;0.87;;
313;SDS011;143;51.634;7.112;2022-07-06T14:54:08;4.23;;;0.70;;
313;SDS011;143;51.634;7.112;2022-07-06T14:56:35;1.20;;;0.60;;
313;SDS011;143;51.634;7.112;2022-07-06T14:59:01;1.80;;;0.90;;
313;SDS011;143;51.634;7.112;2022-07-06T15:01:27;1.30;;;0.70;;
313;SDS011;143;51.634;7.112;2022-07-06T15:03:53;3.00;;;1.23;;
313;SDS011;143;51.634;7.112;2022-07-06T15:06:18;2.43;;;0.73;;
313;SDS011;143;51.634;7.112;2022-07-06T15:08:44;4.93;;;1.17;;
313;SDS011;143;51.634;7.112;2022-07-06T15:11:12;2.17;;;0.77;;
313;SDS011;143;51.634;7.112;2022-07-06T15:13:38;3.60;;;1.00;;
313;SDS011;143;51.634;7.112;2022-07-06T15:16:04;1.60;;;0.70;;
313;SDS011;143;51.634;7.112;2022-07-06T15:18:30;7.60;;;0.70;;
313;SDS011;143;51.634;7.112;2022-07-06T15:20:55;1.53;;;0.80;;
313;SDS011;143;51.634;7.112;2022-07-06T15:23:22;1.70;;;0.87;;
313;SDS011;143;51.634;7.112;2022-07-06T15:25:48;2.23;;;0.60;;
313;SDS011;143;51.634;7.112;2022-07-06T15:28:14;1.97;;;0.70;;
313;SDS011;143;51.634;7.112;2022-07-06T15:30:41;1.43;;;0.80;;
313;SDS011;143;51.634;7.112;2022-07-06T15:33:07;2.23;;;0.90;;
313;SDS011;143;51.634;7.112;2022-07-06T15:35:35;3.13;;;0.70;;
313;SDS011;143;51.634;7.112;2022-07-06T15:38:01;3.37;;;0.70;;
313;SDS011;143;51.634;7.112;2022-07-06T15:40:27;4.00;;;0.80;;
313;SDS011;143;51.634;7.112;2022-07-06T15:42:55;1.73;;;1.00;;
313;SDS011;143;51.634;7.112;2022-07-06T15:45:21;1.63;;;0.60;;
313;SDS011;143;51.634;7.112;2022-07-06T15:47:50;1.83;;;0.63;;
313;SDS011;143;51.634;7.112;2022-07-06T15:50:16;2.40;;;0.60;;
313;SDS011;143;51.634;7.112;2022-07-06T15:52:43;1.30;;;0.60;;
313;SDS011;143;51.634;7.112;2022-07-06T15:55:09;2.07;;;0.80;;
313;SDS011;143;51.634;7.112;2022-07-06T15:57:35;1.47;;;0.70;;
313;SDS011;143;51.634;7.112;2022-07-06T16:00:01;1.87;;;0.80;;